createdAt,value
2018-03-07T00:05:30.254Z,180.30
2018-03-07T00:08:00.712Z,215.20
2018-03-07T00:10:37.328Z,220.77
2018-03-07T00:13:06.816Z,227.73
2018-03-07T00:15:38.611Z,214.20
2018-03-07T00:18:14.340Z,194.30
2018-03-07T00:20:50.830Z,208.40
2018-03-07T00:23:30.026Z,215.67
2018-03-07T00:26:06.475Z,198.53
2018-03-07T00:28:44.101Z,207.93
2018-03-07T00:31:22.109Z,190.80
2018-03-07T00:33:52.398Z,202.60
2018-03-07T00:36:20.187Z,239.23
2018-03-07T00:38:47.920Z,216.83
2018-03-07T00:41:17.019Z,178.00
2018-03-07T00:43:44.683Z,204.63
2018-03-07T00:46:12.440Z,230.57
2018-03-07T00:48:40.325Z,216.67
2018-03-07T00:51:08.724Z,229.30
2018-03-07T00:53:37.597Z,222.77
2018-03-07T00:56:05.262Z,216.23
2018-03-07T00:58:32.856Z,204.00
2018-03-07T01:01:00.473Z,197.43
2018-03-07T01:03:28.672Z,202.13
2018-03-07T01:05:56.281Z,190.63
2018-03-07T01:08:23.907Z,208.10
2018-03-07T01:10:51.632Z,171.80
2018-03-07T01:13:20.334Z,184.67
2018-03-07T01:15:48.392Z,194.70
2018-03-07T01:18:16.358Z,188.67
2018-03-07T01:20:43.989Z,181.63
2018-03-07T01:23:12.929Z,189.63
2018-03-07T01:25:41.499Z,193.20
2018-03-07T01:28:09.172Z,196.53
2018-03-07T01:30:36.831Z,175.60
2018-03-07T01:33:05.297Z,190.63
2018-03-07T01:35:33.966Z,202.70
2018-03-07T01:38:01.648Z,194.33
2018-03-07T01:40:29.299Z,182.17
2018-03-07T01:42:56.914Z,180.73
2018-03-07T01:45:24.655Z,189.60
2018-03-07T01:47:52.371Z,192.67
2018-03-07T01:50:19.992Z,182.73
2018-03-07T01:52:47.827Z,169.77
2018-03-07T01:55:15.433Z,155.53
2018-03-07T01:57:43.058Z,155.67
2018-03-07T02:00:11.009Z,167.53
2018-03-07T02:02:38.634Z,163.23
2018-03-07T02:05:06.511Z,166.83
2018-03-07T02:07:34.547Z,161.03
2018-03-07T02:10:02.169Z,147.97
2018-03-07T02:12:29.761Z,135.63
2018-03-07T02:14:57.367Z,148.63
2018-03-07T02:17:25.597Z,157.30
2018-03-07T02:19:53.175Z,150.00
2018-03-07T02:22:20.801Z,138.27
2018-03-07T02:24:48.626Z,162.17
2018-03-07T02:27:16.268Z,144.27
2018-03-07T02:29:43.887Z,142.33
2018-03-07T02:32:12.650Z,160.53
2018-03-07T02:34:40.254Z,164.00
2018-03-07T02:37:08.141Z,148.80
2018-03-07T02:39:35.823Z,132.20
2018-03-07T02:42:03.430Z,141.00
2018-03-07T02:44:30.988Z,128.47
2018-03-07T02:46:58.580Z,125.10
2018-03-07T02:49:26.512Z,123.10
2018-03-07T02:51:54.317Z,133.20
2018-03-07T02:54:21.910Z,113.57
2018-03-07T02:56:49.534Z,112.10
2018-03-07T02:59:17.818Z,124.20
2018-03-07T03:01:45.414Z,110.93
2018-03-07T03:04:13.032Z,109.67
2018-03-07T03:06:41.830Z,114.47
2018-03-07T03:09:10.742Z,94.67
2018-03-07T03:11:38.364Z,101.30
2018-03-07T03:14:05.960Z,99.87
2018-03-07T03:16:33.575Z,107.67
2018-03-07T03:19:04.579Z,95.10
2018-03-07T03:21:32.156Z,82.70
2018-03-07T03:23:59.751Z,86.27
2018-03-07T03:26:27.380Z,97.07
2018-03-07T03:28:54.954Z,86.37
2018-03-07T03:31:22.534Z,84.90
2018-03-07T03:33:50.212Z,74.50
2018-03-07T03:36:18.432Z,87.90
2018-03-07T03:38:46.027Z,73.27
2018-03-07T03:41:18.189Z,70.90
2018-03-07T03:43:47.266Z,63.93
2018-03-07T03:46:16.170Z,79.87
2018-03-07T03:48:47.838Z,75.37
2018-03-07T03:51:18.108Z,72.23
2018-03-07T03:53:48.926Z,142.57
2018-03-07T03:56:19.680Z,114.50
2018-03-07T03:58:47.593Z,84.20
2018-03-07T04:01:15.226Z,81.03
2018-03-07T04:03:42.832Z,122.37
2018-03-07T04:06:10.473Z,74.60
2018-03-07T04:08:38.074Z,96.70
2018-03-07T04:11:06.334Z,78.90
2018-03-07T04:13:34.265Z,95.97
2018-03-07T04:16:01.887Z,60.90
2018-03-07T04:18:29.505Z,83.93
2018-03-07T04:20:57.165Z,72.43
2018-03-07T04:23:24.753Z,78.13
2018-03-07T04:25:52.444Z,87.03
2018-03-07T04:28:20.722Z,99.67
2018-03-07T04:30:48.569Z,80.37
2018-03-07T04:33:16.578Z,101.27
2018-03-07T04:35:44.223Z,90.47
2018-03-07T04:38:11.899Z,266.17
2018-03-07T04:40:39.626Z,97.27
2018-03-07T04:43:07.440Z,108.77
2018-03-07T04:45:35.719Z,104.03
2018-03-07T04:48:03.793Z,99.73
2018-03-07T04:50:31.374Z,110.20
2018-03-07T04:52:59.599Z,127.83
2018-03-07T04:55:27.268Z,91.20
2018-03-07T04:57:54.919Z,74.33
2018-03-07T05:00:22.550Z,79.30
2018-03-07T05:02:50.216Z,76.13
2018-03-07T05:05:17.882Z,70.87
2018-03-07T05:07:45.505Z,81.50
2018-03-07T05:10:13.172Z,86.33
2018-03-07T05:12:40.782Z,85.73
2018-03-07T05:15:08.510Z,107.83
2018-03-07T05:17:37.040Z,227.83
2018-03-07T05:20:04.702Z,129.87
2018-03-07T05:22:32.676Z,149.70
2018-03-07T05:25:00.344Z,92.03
2018-03-07T05:27:28.729Z,124.57
2018-03-07T05:29:56.427Z,107.90
2018-03-07T05:32:24.974Z,123.00
2018-03-07T05:34:52.607Z,100.57
2018-03-07T05:37:20.292Z,79.27
2018-03-07T05:39:47.938Z,105.73
2018-03-07T05:42:15.802Z,124.57
2018-03-07T05:44:43.484Z,102.73
2018-03-07T05:47:11.591Z,129.27
2018-03-07T05:49:39.457Z,106.10
2018-03-07T05:52:07.104Z,114.60
2018-03-07T05:54:34.860Z,127.53
2018-03-07T05:57:02.557Z,91.07
2018-03-07T05:59:30.218Z,107.93
2018-03-07T06:01:57.835Z,100.83
2018-03-07T06:04:26.646Z,109.83
2018-03-07T06:06:54.524Z,95.73
2018-03-07T06:09:23.766Z,100.37
2018-03-07T06:11:51.432Z,104.40
2018-03-07T06:14:19.064Z,97.17
2018-03-07T06:16:46.660Z,105.27
2018-03-07T06:19:14.712Z,104.07
2018-03-07T06:21:42.355Z,119.57
2018-03-07T06:24:10.281Z,109.50
2018-03-07T06:26:37.925Z,119.70
2018-03-07T06:29:06.042Z,106.50
2018-03-07T06:31:33.648Z,102.10
2018-03-07T06:34:01.304Z,142.73
2018-03-07T06:36:28.941Z,137.03
2018-03-07T06:38:56.593Z,116.23
2018-03-07T06:41:24.895Z,111.60
2018-03-07T06:43:52.547Z,260.40
2018-03-07T06:46:20.212Z,219.80
2018-03-07T06:48:47.818Z,176.77
2018-03-07T06:51:16.060Z,121.27
2018-03-07T06:53:43.697Z,105.87
2018-03-07T06:56:11.639Z,87.40
2018-03-07T06:58:39.661Z,63.67
2018-03-07T07:01:07.287Z,74.27
2018-03-07T07:03:34.882Z,71.67
2018-03-07T07:06:02.515Z,66.80
2018-03-07T07:08:30.239Z,82.80
2018-03-07T07:10:57.894Z,77.70
2018-03-07T07:13:25.638Z,119.93
2018-03-07T07:15:57.249Z,93.60
2018-03-07T07:18:24.898Z,99.87
2018-03-07T07:20:52.517Z,93.43
2018-03-07T07:23:20.833Z,96.20
2018-03-07T07:25:48.534Z,93.97
2018-03-07T07:28:16.203Z,94.83
2018-03-07T07:30:43.809Z,86.70
2018-03-07T07:33:12.638Z,89.00
2018-03-07T07:35:41.118Z,108.00
2018-03-07T07:38:10.574Z,86.30
2018-03-07T07:40:38.205Z,80.13
2018-03-07T07:43:06.007Z,97.07
2018-03-07T07:45:33.646Z,80.77
2018-03-07T07:48:01.281Z,98.93
2018-03-07T07:50:28.878Z,89.20
2018-03-07T07:52:56.525Z,84.93
2018-03-07T07:55:24.864Z,83.07
2018-03-07T07:57:52.396Z,90.40
2018-03-07T08:00:20.192Z,78.73
2018-03-07T08:02:47.839Z,76.00
2018-03-07T08:05:15.675Z,70.57
2018-03-07T08:07:43.283Z,77.70
2018-03-07T08:10:10.935Z,74.93
2018-03-07T08:12:38.671Z,81.47
2018-03-07T08:15:06.409Z,77.23
2018-03-07T08:17:34.041Z,68.30
2018-03-07T08:20:01.638Z,77.60
2018-03-07T08:22:32.309Z,69.87
2018-03-07T08:24:59.922Z,68.17
2018-03-07T08:27:28.385Z,65.77
2018-03-07T08:29:55.976Z,68.30
2018-03-07T08:32:25.132Z,77.53
2018-03-07T08:34:52.889Z,66.97
2018-03-07T08:37:20.522Z,62.53
2018-03-07T08:39:48.120Z,63.00
2018-03-07T08:42:15.735Z,59.87
2018-03-07T08:44:43.334Z,54.80
2018-03-07T08:47:11.898Z,53.10
2018-03-07T08:49:39.503Z,57.53
2018-03-07T08:52:07.150Z,57.80
2018-03-07T08:54:34.781Z,53.17
2018-03-07T08:57:02.373Z,61.87
2018-03-07T08:59:29.994Z,52.10
2018-03-07T09:01:57.581Z,51.50
2018-03-07T09:04:25.170Z,56.20
2018-03-07T09:06:52.800Z,48.40
2018-03-07T09:09:24.163Z,52.90
2018-03-07T09:11:52.344Z,51.30
2018-03-07T09:14:20.114Z,53.53
2018-03-07T09:16:48.824Z,54.17
2018-03-07T09:19:17.086Z,45.03
2018-03-07T09:21:44.819Z,52.73
2018-03-07T09:24:12.504Z,41.80
2018-03-07T09:26:40.106Z,43.50
2018-03-07T09:29:10.346Z,44.93
2018-03-07T09:31:38.028Z,38.40
2018-03-07T09:34:05.778Z,43.10
2018-03-07T09:36:33.417Z,38.43
2018-03-07T09:39:01.000Z,23.70
2018-03-07T09:41:29.890Z,27.30
2018-03-07T09:43:57.836Z,20.43
2018-03-07T09:46:25.690Z,20.93
2018-03-07T09:48:53.318Z,20.53
2018-03-07T09:51:21.903Z,18.13
2018-03-07T09:53:49.514Z,16.27
2018-03-07T09:56:17.181Z,14.47
2018-03-07T09:58:44.758Z,13.23
2018-03-07T10:01:12.403Z,14.50
2018-03-07T10:03:40.020Z,23.97
2018-03-07T10:06:07.616Z,28.60
2018-03-07T10:08:35.235Z,16.70
2018-03-07T10:11:02.876Z,16.27
2018-03-07T10:13:33.135Z,21.33
2018-03-07T10:16:00.748Z,22.43
2018-03-07T10:18:29.907Z,26.10
2018-03-07T10:20:57.507Z,21.07
2018-03-07T10:23:26.865Z,23.43
2018-03-07T10:25:54.533Z,23.20
2018-03-07T10:28:24.188Z,25.93
2018-03-07T10:30:52.110Z,25.87
2018-03-07T10:33:26.149Z,35.07
2018-03-07T10:35:53.720Z,30.63
2018-03-07T10:38:21.291Z,23.50
2018-03-07T10:40:48.810Z,25.33
2018-03-07T10:43:16.365Z,34.13
2018-03-07T10:45:43.936Z,24.77
2018-03-07T10:48:11.515Z,20.40
2018-03-07T10:50:39.151Z,23.27
2018-03-07T10:53:07.126Z,21.13
2018-03-07T10:55:34.730Z,19.33
2018-03-07T10:58:02.384Z,26.27
2018-03-07T11:00:35.564Z,24.77
2018-03-07T11:03:03.203Z,24.70
2018-03-07T11:05:31.162Z,23.47
2018-03-07T11:08:00.252Z,20.43
2018-03-07T11:10:27.959Z,26.43
2018-03-07T11:12:55.703Z,23.20
2018-03-07T11:15:23.489Z,22.77
2018-03-07T11:17:51.201Z,26.30
2018-03-07T11:20:19.321Z,23.90
2018-03-07T11:22:47.423Z,26.97
2018-03-07T11:25:17.078Z,23.83
2018-03-07T11:27:45.486Z,27.67
2018-03-07T11:30:15.549Z,20.90
2018-03-07T11:32:46.998Z,21.17
2018-03-07T11:35:15.239Z,20.37
2018-03-07T11:37:43.751Z,21.10
2018-03-07T11:40:11.993Z,30.73
2018-03-07T11:42:39.632Z,25.63
2018-03-07T11:45:07.332Z,16.70
2018-03-07T11:47:34.910Z,20.43
2018-03-07T11:50:02.526Z,17.10
2018-03-07T11:52:31.188Z,17.20
2018-03-07T11:55:01.354Z,17.03
2018-03-07T11:57:30.536Z,20.70
2018-03-07T12:00:02.710Z,15.93
2018-03-07T12:02:30.492Z,17.70
2018-03-07T12:04:58.120Z,14.90
2018-03-07T12:07:25.732Z,17.87
2018-03-07T12:09:53.419Z,17.00
2018-03-07T12:12:21.012Z,17.90
2018-03-07T12:14:48.811Z,15.40
2018-03-07T12:17:16.445Z,16.30
2018-03-07T12:19:44.080Z,15.83
2018-03-07T12:22:11.714Z,22.80
2018-03-07T12:24:39.581Z,17.27
2018-03-07T12:27:08.499Z,18.73
2018-03-07T12:29:36.180Z,18.63
2018-03-07T12:32:03.823Z,15.20
2018-03-07T12:34:31.472Z,15.93
2018-03-07T12:36:59.102Z,14.17
2018-03-07T12:39:28.385Z,12.13
2018-03-07T12:41:56.355Z,14.67
2018-03-07T12:44:30.886Z,16.47
2018-03-07T12:47:00.124Z,14.87
2018-03-07T12:49:28.633Z,13.60
2018-03-07T12:51:56.439Z,11.30
2018-03-07T12:54:24.837Z,14.13
2018-03-07T12:56:52.465Z,12.33
2018-03-07T12:59:20.129Z,13.93
2018-03-07T13:01:47.692Z,11.20
2018-03-07T13:04:15.411Z,12.10
2018-03-07T13:06:43.090Z,11.60
2018-03-07T13:09:15.252Z,11.20
2018-03-07T13:11:42.902Z,11.90
2018-03-07T13:14:12.618Z,14.60
2018-03-07T13:16:40.475Z,13.70
2018-03-07T13:19:09.274Z,12.33
2018-03-07T13:21:36.932Z,12.03
2018-03-07T13:24:04.639Z,10.63
2018-03-07T13:26:33.746Z,12.00
2018-03-07T13:29:02.283Z,15.93
2018-03-07T13:31:32.949Z,12.90
2018-03-07T13:34:04.951Z,11.87
2018-03-07T13:36:33.062Z,10.87
2018-03-07T13:39:01.587Z,10.90
2018-03-07T13:41:29.309Z,14.60
2018-03-07T13:44:05.705Z,12.10
2018-03-07T13:46:39.730Z,16.73
2018-03-07T13:49:28.574Z,14.20
2018-03-07T13:51:56.338Z,13.00
2018-03-07T13:54:25.484Z,13.10
2018-03-07T13:56:54.551Z,14.03
2018-03-07T13:59:26.648Z,19.00
2018-03-07T14:01:55.428Z,14.73
2018-03-07T14:04:23.467Z,14.90
2018-03-07T14:06:53.838Z,13.90
2018-03-07T14:09:24.597Z,12.37
2018-03-07T14:14:40.985Z,10.80
2018-03-07T14:17:14.730Z,9.57
2018-03-07T14:19:42.466Z,11.30
2018-03-07T14:22:10.685Z,14.43
2018-03-07T14:24:51.057Z,9.37
2018-03-07T14:27:26.523Z,12.90
2018-03-07T14:29:54.236Z,17.97
2018-03-07T14:32:24.638Z,8.83
2018-03-07T14:34:55.557Z,12.80
2018-03-07T14:37:38.073Z,8.03
2018-03-07T14:40:05.886Z,11.47
2018-03-07T14:42:33.503Z,11.97
2018-03-07T14:45:01.249Z,11.93
2018-03-07T14:47:30.341Z,8.50
2018-03-07T14:49:59.232Z,11.50
2018-03-07T14:52:27.115Z,10.57
2018-03-07T14:54:54.846Z,10.40
2018-03-07T14:57:27.005Z,24.73
2018-03-07T14:59:54.646Z,20.43
2018-03-07T15:02:23.987Z,12.17
2018-03-07T15:04:53.401Z,12.63
2018-03-07T15:07:22.412Z,13.33
2018-03-07T15:09:59.390Z,8.10
2018-03-07T15:12:27.838Z,12.53
2018-03-07T15:14:55.488Z,7.20
2018-03-07T15:17:24.144Z,8.00
2018-03-07T15:20:08.206Z,10.60
2018-03-07T15:22:42.267Z,8.30
2018-03-07T15:25:16.511Z,7.10
2018-03-07T15:27:50.181Z,7.90
2018-03-07T15:30:17.797Z,6.67
2018-03-07T15:32:46.547Z,7.47
2018-03-07T15:35:15.813Z,5.70
2018-03-07T15:37:48.311Z,6.50
2018-03-07T15:40:19.246Z,7.87
2018-03-07T15:43:01.763Z,15.60
2018-03-07T15:45:35.041Z,10.03
2018-03-07T15:48:06.535Z,10.47
2018-03-07T15:50:35.222Z,6.07
2018-03-07T15:53:04.102Z,8.10
2018-03-07T15:55:32.665Z,8.87
2018-03-07T15:58:00.854Z,9.60
2018-03-07T16:00:28.543Z,15.77
2018-03-07T16:02:56.304Z,8.80
2018-03-07T16:05:26.168Z,5.20
2018-03-07T16:07:55.123Z,6.10
2018-03-07T16:10:23.102Z,6.90
2018-03-07T16:12:50.896Z,10.50
2018-03-07T16:15:18.797Z,10.17
2018-03-07T16:17:46.502Z,7.60
2018-03-07T16:20:16.999Z,6.27
2018-03-07T16:22:46.696Z,6.10
2018-03-07T16:25:16.194Z,10.10
2018-03-07T16:27:44.219Z,6.83
2018-03-07T16:30:13.024Z,11.67
2018-03-07T16:32:41.586Z,11.30
2018-03-07T16:35:13.072Z,9.10
2018-03-07T16:37:41.869Z,7.00
2018-03-07T16:40:09.508Z,6.27
2018-03-07T16:42:38.323Z,8.90
2018-03-07T16:45:12.435Z,9.53
2018-03-07T16:47:43.928Z,8.90
2018-03-07T16:50:19.209Z,13.43
2018-03-07T16:52:56.016Z,15.90
2018-03-07T16:58:15.671Z,7.80
2018-03-07T17:00:50.767Z,10.23
2018-03-07T17:09:18.910Z,11.23
2018-03-07T17:11:58.817Z,10.03
2018-03-07T17:14:41.411Z,7.97
2018-03-07T17:19:58.277Z,8.90
2018-03-07T17:22:29.035Z,8.80
2018-03-07T17:25:03.703Z,12.47
2018-03-07T17:27:42.431Z,13.43
2018-03-07T17:30:18.969Z,10.43
2018-03-07T17:32:52.102Z,9.00
2018-03-07T17:38:19.239Z,13.00
2018-03-07T17:40:55.398Z,11.60
2018-03-07T17:43:34.993Z,8.70
2018-03-07T17:46:11.074Z,12.77
2018-03-07T17:51:56.034Z,11.10
2018-03-07T18:00:03.349Z,21.30
2018-03-07T18:05:49.265Z,8.80
2018-03-07T18:14:13.850Z,11.33
2018-03-07T18:25:26.162Z,11.57
2018-03-07T18:46:37.878Z,94.67
2018-03-07T18:51:46.802Z,91.40
2018-03-07T18:56:58.715Z,9.87
2018-03-07T18:59:38.669Z,11.77
2018-03-07T19:02:08.480Z,13.27
2018-03-07T19:04:38.785Z,8.37
2018-03-07T19:07:09.992Z,9.90
2018-03-07T19:15:51.792Z,11.87
2018-03-07T19:21:57.095Z,10.40
2018-03-07T19:30:16.783Z,12.50
2018-03-07T19:32:59.775Z,15.30
2018-03-07T19:55:58.886Z,16.20
2018-03-07T19:58:45.613Z,19.87
2018-03-07T20:16:01.562Z,15.30
2018-03-07T20:39:31.546Z,14.30
2018-03-07T20:42:03.721Z,16.10
2018-03-07T20:44:31.363Z,11.53
2018-03-07T20:46:59.176Z,23.57
2018-03-07T20:49:26.979Z,16.57
2018-03-07T20:51:54.911Z,14.57
2018-03-07T20:54:25.168Z,16.90
2018-03-07T20:56:52.713Z,168.93
2018-03-07T20:59:20.377Z,37.27
2018-03-07T21:01:48.011Z,18.10
2018-03-07T21:04:15.632Z,23.10
2018-03-07T21:06:43.209Z,27.43
2018-03-07T21:09:11.291Z,34.03
2018-03-07T21:11:38.904Z,38.13
2018-03-07T21:14:06.578Z,42.43
2018-03-07T21:16:34.702Z,36.77
2018-03-07T21:19:02.300Z,41.43
2018-03-07T21:21:30.541Z,35.97
2018-03-07T21:23:59.013Z,31.57
2018-03-07T21:26:28.771Z,39.60
2018-03-07T21:28:56.772Z,39.87
2018-03-07T21:31:24.346Z,37.00
2018-03-07T21:33:51.978Z,34.70
2018-03-07T21:36:19.781Z,33.43
2018-03-07T21:38:47.513Z,26.50
2018-03-07T21:41:15.116Z,29.53
2018-03-07T21:43:42.896Z,30.90
2018-03-07T21:46:10.663Z,30.90
2018-03-07T21:48:38.236Z,25.07
2018-03-07T21:51:06.198Z,23.77
2018-03-07T21:53:33.924Z,26.63
2018-03-07T21:56:01.522Z,30.37
2018-03-07T21:58:29.391Z,27.87
2018-03-07T22:00:57.022Z,24.73
2018-03-07T22:03:24.615Z,23.03
2018-03-07T22:05:52.460Z,17.97
2018-03-07T22:08:20.106Z,22.73
2018-03-07T22:10:47.667Z,18.90
2018-03-07T22:13:15.306Z,20.80
2018-03-07T22:15:42.935Z,21.10
2018-03-07T22:18:10.580Z,19.90
2018-03-07T22:20:38.142Z,21.50
2018-03-07T22:23:05.865Z,18.23
2018-03-07T22:25:33.477Z,21.93
2018-03-07T22:28:01.103Z,19.10
2018-03-07T22:30:28.715Z,18.87
2018-03-07T22:32:56.474Z,16.00
2018-03-07T22:35:24.077Z,17.03
2018-03-07T22:37:51.689Z,11.30
2018-03-07T22:40:19.260Z,13.20
2018-03-07T22:42:46.806Z,17.03
2018-03-07T22:45:14.423Z,14.70
2018-03-07T22:47:42.013Z,13.13
2018-03-07T22:50:09.635Z,14.53
2018-03-07T22:52:37.351Z,13.57
2018-03-07T22:55:05.143Z,136.67
2018-03-07T22:57:32.909Z,65.23
2018-03-07T23:00:00.621Z,76.70
2018-03-07T23:02:29.022Z,48.20
2018-03-07T23:05:03.434Z,40.37
2018-03-07T23:07:31.970Z,49.97
2018-03-07T23:10:00.652Z,35.40
2018-03-07T23:12:28.520Z,37.50
2018-03-07T23:14:56.465Z,27.10
2018-03-07T23:17:26.309Z,19.10
2018-03-07T23:19:54.163Z,24.30
2018-03-07T23:22:21.833Z,13.87
2018-03-07T23:24:49.623Z,21.37
2018-03-07T23:27:20.159Z,11.63
2018-03-07T23:29:47.811Z,12.43
2018-03-07T23:32:19.721Z,12.10
2018-03-07T23:34:48.150Z,11.60
2018-03-07T23:37:16.115Z,12.07
2018-03-07T23:39:43.816Z,12.17
2018-03-07T23:42:11.664Z,11.57
2018-03-07T23:44:42.800Z,15.23
2018-03-07T23:47:11.276Z,20.20
2018-03-07T23:49:40.366Z,26.03
2018-03-07T23:52:10.750Z,18.00
2018-03-07T23:54:39.202Z,14.93
2018-03-07T23:57:07.217Z,16.20
2018-03-07T23:59:34.842Z,24.30
